sensor_id;sensor_type;location;lat;lon;timestamp;pressure;altitude;pressure_sealevel;temperature;humidity
20889;BME280;10604;51.976;7.594;2022-12-07T00:03:35;100804.28;;;17.67;43.99
20889;BME280;10604;51.976;7.594;2022-12-07T00:06:02;100797.75;;;18.16;42.70
20889;BME280;10604;51.976;7.594;2022-12-07T00:08:28;100800.63;;;18.27;42.64
20889;BME280;10604;51.976;7.594;2022-12-07T00:10:53;100794.63;;;17.80;43.43
20889;BME280;10604;51.976;7.594;2022-12-07T00:13:18;100793.50;;;17.98;43.26
20889;BME280;10604;51.976;7.594;2022-12-07T00:15:44;100794.28;;;18.00;42.86
20889;BME280;10604;51.976;7.594;2022-12-07T00:18:09;100805.88;;;17.39;43.57
20889;BME280;10604;51.976;7.594;2022-12-07T00:20:35;100806.34;;;18.21;42.81
20889;BME280;10604;51.976;7.594;2022-12-07T00:23:00;100796.09;;;17.70;43.52
20889;BME280;10604;51.976;7.594;2022-12-07T00:25:26;100801.41;;;17.24;43.50
20889;BME280;10604;51.976;7.594;2022-12-07T00:27:54;100803.34;;;16.56;45.66
20889;BME280;10604;51.976;7.594;2022-12-07T00:30:23;100789.28;;;17.80;43.52
20889;BME280;10604;51.976;7.594;2022-12-07T00:32:49;100791.13;;;18.37;42.27
20889;BME280;10604;51.976;7.594;2022-12-07T00:35:14;100793.75;;;18.09;42.53
20889;BME280;10604;51.976;7.594;2022-12-07T00:37:39;100780.03;;;18.29;42.39
20889;BME280;10604;51.976;7.594;2022-12-07T00:40:05;100786.19;;;17.72;43.03
20889;BME280;10604;51.976;7.594;2022-12-07T00:42:31;100783.81;;;17.67;43.46
20889;BME280;10604;51.976;7.594;2022-12-07T00:44:56;100781.69;;;17.88;42.66
20889;BME280;10604;51.976;7.594;2022-12-07T00:47:22;100778.78;;;17.77;42.42
20889;BME280;10604;51.976;7.594;2022-12-07T00:49:47;100777.50;;;17.98;42.26
20889;BME280;10604;51.976;7.594;2022-12-07T00:52:12;100773.09;;;17.83;42.51
20889;BME280;10604;51.976;7.594;2022-12-07T00:54:38;100775.75;;;17.37;43.30
20889;BME280;10604;51.976;7.594;2022-12-07T00:57:03;100775.59;;;17.40;43.52
20889;BME280;10604;51.976;7.594;2022-12-07T00:59:28;100774.38;;;17.62;42.61
20889;BME280;10604;51.976;7.594;2022-12-07T01:01:53;100766.16;;;17.19;43.96
20889;BME280;10604;51.976;7.594;2022-12-07T01:04:19;100769.22;;;17.27;43.23
20889;BME280;10604;51.976;7.594;2022-12-07T01:06:44;100765.63;;;17.74;42.18
20889;BME280;10604;51.976;7.594;2022-12-07T01:09:10;100770.56;;;17.66;42.01
20889;BME280;10604;51.976;7.594;2022-12-07T01:11:35;100773.13;;;17.51;42.14
20889;BME280;10604;51.976;7.594;2022-12-07T01:14:01;100764.41;;;16.87;43.87
20889;BME280;10604;51.976;7.594;2022-12-07T01:16:29;100766.22;;;17.33;42.90
20889;BME280;10604;51.976;7.594;2022-12-07T01:18:56;100766.72;;;16.77;44.20
20889;BME280;10604;51.976;7.594;2022-12-07T01:21:27;100769.69;;;17.04;43.36
20889;BME280;10604;51.976;7.594;2022-12-07T01:23:53;100774.63;;;16.78;43.86
20889;BME280;10604;51.976;7.594;2022-12-07T01:26:23;100771.13;;;16.94;43.74
20889;BME280;10604;51.976;7.594;2022-12-07T01:28:49;100777.28;;;17.41;42.95
20889;BME280;10604;51.976;7.594;2022-12-07T01:31:17;100773.72;;;17.56;42.65
20889;BME280;10604;51.976;7.594;2022-12-07T01:33:46;100766.31;;;17.32;42.52
20889;BME280;10604;51.976;7.594;2022-12-07T01:36:19;100779.84;;;17.58;42.41
20889;BME280;10604;51.976;7.594;2022-12-07T01:38:46;100788.97;;;17.54;42.25
20889;BME280;10604;51.976;7.594;2022-12-07T01:41:12;100785.53;;;17.52;42.17
20889;BME280;10604;51.976;7.594;2022-12-07T01:44:07;100791.81;;;17.51;42.33
20889;BME280;10604;51.976;7.594;2022-12-07T01:46:33;100784.69;;;17.20;42.66
20889;BME280;10604;51.976;7.594;2022-12-07T01:48:59;100785.69;;;17.49;42.21
20889;BME280;10604;51.976;7.594;2022-12-07T01:51:25;100779.56;;;17.33;42.45
20889;BME280;10604;51.976;7.594;2022-12-07T01:53:52;100776.09;;;17.31;42.29
20889;BME280;10604;51.976;7.594;2022-12-07T01:56:20;100783.16;;;17.16;42.37
20889;BME280;10604;51.976;7.594;2022-12-07T01:58:47;100782.16;;;17.19;42.25
20889;BME280;10604;51.976;7.594;2022-12-07T02:01:14;100786.56;;;17.50;41.71
20889;BME280;10604;51.976;7.594;2022-12-07T02:03:42;100780.59;;;17.15;42.70
20889;BME280;10604;51.976;7.594;2022-12-07T02:06:10;100784.19;;;17.14;42.35
20889;BME280;10604;51.976;7.594;2022-12-07T02:08:37;100777.47;;;17.07;42.59
20889;BME280;10604;51.976;7.594;2022-12-07T02:11:04;100778.34;;;17.07;42.50
20889;BME280;10604;51.976;7.594;2022-12-07T02:13:33;100785.97;;;16.49;43.57
20889;BME280;10604;51.976;7.594;2022-12-07T02:21:37;100775.25;;;17.15;41.58
20889;BME280;10604;51.976;7.594;2022-12-07T02:27:14;100773.44;;;16.51;43.17
20889;BME280;10604;51.976;7.594;2022-12-07T02:30:08;100774.28;;;16.36;43.51
20889;BME280;10604;51.976;7.594;2022-12-07T02:32:47;100771.81;;;16.81;42.21
20889;BME280;10604;51.976;7.594;2022-12-07T02:35:31;100769.84;;;16.52;42.44
20889;BME280;10604;51.976;7.594;2022-12-07T02:38:16;100767.53;;;16.95;41.91
20889;BME280;10604;51.976;7.594;2022-12-07T02:40:50;100764.59;;;16.68;42.49
20889;BME280;10604;51.976;7.594;2022-12-07T02:43:20;100779.00;;;16.64;42.76
20889;BME280;10604;51.976;7.594;2022-12-07T02:45:51;100770.09;;;16.80;42.23
20889;BME280;10604;51.976;7.594;2022-12-07T02:48:18;100771.28;;;16.75;42.53
20889;BME280;10604;51.976;7.594;2022-12-07T02:50:54;100772.44;;;16.03;43.84
20889;BME280;10604;51.976;7.594;2022-12-07T02:53:40;100772.44;;;16.54;42.82
20889;BME280;10604;51.976;7.594;2022-12-07T03:04:54;100760.91;;;16.53;42.05
20889;BME280;10604;51.976;7.594;2022-12-07T03:07:45;100761.78;;;16.54;42.21
20889;BME280;10604;51.976;7.594;2022-12-07T03:10:22;100768.47;;;16.45;42.11
20889;BME280;10604;51.976;7.594;2022-12-07T03:18:37;100758.84;;;16.58;41.56
20889;BME280;10604;51.976;7.594;2022-12-07T03:21:09;100766.50;;;15.81;43.67
20889;BME280;10604;51.976;7.594;2022-12-07T03:23:38;100766.22;;;16.20;43.11
20889;BME280;10604;51.976;7.594;2022-12-07T03:26:09;100766.00;;;16.25;42.45
20889;BME280;10604;51.976;7.594;2022-12-07T03:28:40;100752.69;;;16.25;42.13
20889;BME280;10604;51.976;7.594;2022-12-07T03:31:30;100759.34;;;15.47;43.78
20889;BME280;10604;51.976;7.594;2022-12-07T03:34:26;100759.47;;;15.80;42.71
20889;BME280;10604;51.976;7.594;2022-12-07T03:36:55;100751.56;;;16.29;42.08
20889;BME280;10604;51.976;7.594;2022-12-07T03:39:45;100748.19;;;15.92;42.83
20889;BME280;10604;51.976;7.594;2022-12-07T03:42:12;100741.06;;;16.10;42.59
20889;BME280;10604;51.976;7.594;2022-12-07T03:44:38;100741.97;;;15.76;43.81
20889;BME280;10604;51.976;7.594;2022-12-07T03:50:22;100752.28;;;15.82;43.58
20889;BME280;10604;51.976;7.594;2022-12-07T03:55:56;100748.78;;;16.15;42.13
20889;BME280;10604;51.976;7.594;2022-12-07T03:58:23;100755.78;;;15.12;44.74
20889;BME280;10604;51.976;7.594;2022-12-07T04:00:50;100751.91;;;16.23;42.69
20889;BME280;10604;51.976;7.594;2022-12-07T04:03:15;100752.09;;;16.20;42.36
20889;BME280;10604;51.976;7.594;2022-12-07T04:05:41;100748.69;;;16.33;41.82
20889;BME280;10604;51.976;7.594;2022-12-07T04:08:06;100749.22;;;16.40;42.14
20889;BME280;10604;51.976;7.594;2022-12-07T04:10:32;100743.56;;;16.46;41.72
20889;BME280;10604;51.976;7.594;2022-12-07T04:12:57;100753.50;;;16.42;42.19
20889;BME280;10604;51.976;7.594;2022-12-07T04:15:23;100755.53;;;16.55;41.69
20889;BME280;10604;51.976;7.594;2022-12-07T04:17:48;100752.56;;;16.76;41.53
20889;BME280;10604;51.976;7.594;2022-12-07T04:20:13;100749.13;;;16.09;42.98
20889;BME280;10604;51.976;7.594;2022-12-07T04:22:39;100760.72;;;15.90;43.04
20889;BME280;10604;51.976;7.594;2022-12-07T04:25:05;100764.78;;;15.80;43.80
20889;BME280;10604;51.976;7.594;2022-12-07T04:27:30;100759.94;;;16.05;43.45
20889;BME280;10604;51.976;7.594;2022-12-07T04:29:55;100752.59;;;15.76;43.52
20889;BME280;10604;51.976;7.594;2022-12-07T04:32:22;100755.22;;;15.93;43.27
20889;BME280;10604;51.976;7.594;2022-12-07T04:34:47;100756.16;;;16.42;41.96
20889;BME280;10604;51.976;7.594;2022-12-07T04:37:12;100755.34;;;16.58;41.59
20889;BME280;10604;51.976;7.594;2022-12-07T04:39:38;100752.72;;;16.08;42.35
20889;BME280;10604;51.976;7.594;2022-12-07T04:42:03;100756.34;;;15.89;42.53
20889;BME280;10604;51.976;7.594;2022-12-07T04:44:29;100759.78;;;15.74;42.74
20889;BME280;10604;51.976;7.594;2022-12-07T04:46:55;100765.38;;;15.34;43.80
20889;BME280;10604;51.976;7.594;2022-12-07T04:49:22;100760.44;;;15.43;43.23
20889;BME280;10604;51.976;7.594;2022-12-07T04:51:48;100765.44;;;15.49;44.24
20889;BME280;10604;51.976;7.594;2022-12-07T04:54:14;100763.88;;;15.98;42.63
20889;BME280;10604;51.976;7.594;2022-12-07T04:56:40;100756.72;;;15.99;42.95
20889;BME280;10604;51.976;7.594;2022-12-07T04:59:06;100755.19;;;15.24;43.86
20889;BME280;10604;51.976;7.594;2022-12-07T05:01:33;100751.69;;;16.10;42.60
20889;BME280;10604;51.976;7.594;2022-12-07T05:03:58;100753.38;;;15.95;42.55
20889;BME280;10604;51.976;7.594;2022-12-07T05:06:24;100753.03;;;16.34;41.50
20889;BME280;10604;51.976;7.594;2022-12-07T05:08:50;100754.56;;;15.90;41.99
20889;BME280;10604;51.976;7.594;2022-12-07T05:11:16;100754.16;;;15.97;42.15
20889;BME280;10604;51.976;7.594;2022-12-07T05:14:01;100749.84;;;16.28;41.40
20889;BME280;10604;51.976;7.594;2022-12-07T05:16:27;100747.81;;;16.33;41.16
20889;BME280;10604;51.976;7.594;2022-12-07T05:18:53;100755.50;;;16.22;41.14
20889;BME280;10604;51.976;7.594;2022-12-07T05:21:18;100758.53;;;15.98;42.24
20889;BME280;10604;51.976;7.594;2022-12-07T05:23:44;100756.50;;;16.36;41.74
20889;BME280;10604;51.976;7.594;2022-12-07T05:26:09;100760.78;;;15.72;42.76
20889;BME280;10604;51.976;7.594;2022-12-07T05:28:35;100764.97;;;15.77;42.67
20889;BME280;10604;51.976;7.594;2022-12-07T05:31:00;100758.00;;;15.39;42.95
20889;BME280;10604;51.976;7.594;2022-12-07T05:33:26;100768.34;;;16.14;42.12
20889;BME280;10604;51.976;7.594;2022-12-07T05:35:51;100758.97;;;16.24;41.57
20889;BME280;10604;51.976;7.594;2022-12-07T05:38:16;100760.56;;;15.93;42.21
20889;BME280;10604;51.976;7.594;2022-12-07T05:40:41;100756.84;;;15.44;43.31
20889;BME280;10604;51.976;7.594;2022-12-07T05:43:07;100745.84;;;16.03;42.39
20889;BME280;10604;51.976;7.594;2022-12-07T05:45:32;100745.03;;;15.50;43.03
20889;BME280;10604;51.976;7.594;2022-12-07T05:47:57;100741.25;;;15.73;43.07
20889;BME280;10604;51.976;7.594;2022-12-07T05:50:23;100733.50;;;15.68;42.85
20889;BME280;10604;51.976;7.594;2022-12-07T05:52:49;100733.88;;;16.28;41.97
20889;BME280;10604;51.976;7.594;2022-12-07T05:55:14;100737.84;;;16.36;41.69
20889;BME280;10604;51.976;7.594;2022-12-07T05:57:39;100737.19;;;16.33;41.73
20889;BME280;10604;51.976;7.594;2022-12-07T06:00:05;100734.84;;;16.27;41.18
20889;BME280;10604;51.976;7.594;2022-12-07T06:02:31;100730.22;;;16.13;41.43
20889;BME280;10604;51.976;7.594;2022-12-07T06:04:56;100734.13;;;15.90;41.97
20889;BME280;10604;51.976;7.594;2022-12-07T06:07:22;100733.50;;;15.68;42.17
20889;BME280;10604;51.976;7.594;2022-12-07T06:09:47;100731.38;;;15.57;42.96
20889;BME280;10604;51.976;7.594;2022-12-07T06:12:13;100750.88;;;15.75;41.83
20889;BME280;10604;51.976;7.594;2022-12-07T06:14:57;100755.56;;;15.87;42.27
20889;BME280;10604;51.976;7.594;2022-12-07T06:17:23;100756.81;;;15.97;41.99
20889;BME280;10604;51.976;7.594;2022-12-07T06:19:48;100747.41;;;16.08;41.84
20889;BME280;10604;51.976;7.594;2022-12-07T06:22:13;100738.44;;;15.76;42.16
20889;BME280;10604;51.976;7.594;2022-12-07T06:24:41;100740.34;;;16.06;41.90
20889;BME280;10604;51.976;7.594;2022-12-07T06:27:06;100743.50;;;15.80;42.38
20889;BME280;10604;51.976;7.594;2022-12-07T06:29:32;100747.06;;;16.14;41.79
20889;BME280;10604;51.976;7.594;2022-12-07T06:31:58;100746.25;;;16.29;41.18
20889;BME280;10604;51.976;7.594;2022-12-07T06:34:24;100751.25;;;16.35;41.66
20889;BME280;10604;51.976;7.594;2022-12-07T06:36:50;100748.72;;;16.16;41.54
20889;BME280;10604;51.976;7.594;2022-12-07T06:39:21;100744.53;;;15.78;42.26
20889;BME280;10604;51.976;7.594;2022-12-07T06:41:47;100756.28;;;15.91;42.39
20889;BME280;10604;51.976;7.594;2022-12-07T06:44:12;100736.59;;;16.11;41.82
20889;BME280;10604;51.976;7.594;2022-12-07T06:46:38;100739.22;;;16.28;41.17
20889;BME280;10604;51.976;7.594;2022-12-07T06:49:04;100748.97;;;15.94;41.67
20889;BME280;10604;51.976;7.594;2022-12-07T06:51:30;100746.00;;;16.00;41.31
20889;BME280;10604;51.976;7.594;2022-12-07T06:53:56;100745.88;;;15.69;41.73
20889;BME280;10604;51.976;7.594;2022-12-07T06:56:21;100749.66;;;15.46;42.34
20889;BME280;10604;51.976;7.594;2022-12-07T06:58:48;100749.63;;;15.82;41.46
20889;BME280;10604;51.976;7.594;2022-12-07T07:01:16;100751.78;;;15.57;42.44
20889;BME280;10604;51.976;7.594;2022-12-07T07:03:43;100765.56;;;15.65;41.68
20889;BME280;10604;51.976;7.594;2022-12-07T07:06:09;100759.13;;;15.52;42.16
20889;BME280;10604;51.976;7.594;2022-12-07T07:08:35;100766.91;;;15.38;42.52
20889;BME280;10604;51.976;7.594;2022-12-07T07:11:01;100767.56;;;14.88;43.24
20889;BME280;10604;51.976;7.594;2022-12-07T07:13:26;100771.19;;;15.59;41.51
20889;BME280;10604;51.976;7.594;2022-12-07T07:15:52;100771.38;;;15.73;41.91
20889;BME280;10604;51.976;7.594;2022-12-07T07:18:17;100772.28;;;15.19;42.09
20889;BME280;10604;51.976;7.594;2022-12-07T07:20:43;100765.34;;;15.70;41.41
20889;BME280;10604;51.976;7.594;2022-12-07T07:23:08;100761.84;;;15.14;42.91
20889;BME280;10604;51.976;7.594;2022-12-07T07:25:33;100765.28;;;15.52;42.18
20889;BME280;10604;51.976;7.594;2022-12-07T07:27:59;100767.56;;;14.88;42.80
20889;BME280;10604;51.976;7.594;2022-12-07T07:30:25;100763.31;;;15.39;42.32
20889;BME280;10604;51.976;7.594;2022-12-07T07:32:51;100760.91;;;15.70;41.97
20889;BME280;10604;51.976;7.594;2022-12-07T07:35:16;100770.03;;;15.64;41.85
20889;BME280;10604;51.976;7.594;2022-12-07T07:37:42;100775.28;;;15.83;42.07
20889;BME280;10604;51.976;7.594;2022-12-07T07:40:08;100774.09;;;15.89;41.61
20889;BME280;10604;51.976;7.594;2022-12-07T07:42:34;100773.38;;;16.20;41.03
20889;BME280;10604;51.976;7.594;2022-12-07T07:44:59;100779.50;;;15.70;41.48
20889;BME280;10604;51.976;7.594;2022-12-07T07:47:25;100780.50;;;16.02;41.70
20889;BME280;10604;51.976;7.594;2022-12-07T07:49:50;100779.50;;;16.04;41.50
20889;BME280;10604;51.976;7.594;2022-12-07T07:52:15;100784.97;;;15.67;42.12
20889;BME280;10604;51.976;7.594;2022-12-07T07:54:41;100782.00;;;15.56;42.70
20889;BME280;10604;51.976;7.594;2022-12-07T07:57:06;100787.00;;;15.96;41.85
20889;BME280;10604;51.976;7.594;2022-12-07T07:59:31;100776.44;;;16.45;40.66
20889;BME280;10604;51.976;7.594;2022-12-07T08:04:24;100792.31;;;16.14;41.69
20889;BME280;10604;51.976;7.594;2022-12-07T08:06:51;100778.56;;;15.71;41.76
20889;BME280;10604;51.976;7.594;2022-12-07T08:09:16;100782.13;;;16.22;41.44
20889;BME280;10604;51.976;7.594;2022-12-07T08:11:41;100787.69;;;16.17;41.60
20889;BME280;10604;51.976;7.594;2022-12-07T08:14:07;100788.25;;;16.06;41.64
20889;BME280;10604;51.976;7.594;2022-12-07T08:16:32;100801.06;;;15.64;42.09
20889;BME280;10604;51.976;7.594;2022-12-07T08:18:57;100795.47;;;15.70;42.08
20889;BME280;10604;51.976;7.594;2022-12-07T08:21:23;100786.31;;;15.40;42.44
20889;BME280;10604;51.976;7.594;2022-12-07T08:23:48;100790.53;;;15.80;42.00
20889;BME280;10604;51.976;7.594;2022-12-07T08:26:15;100790.94;;;15.89;41.32
20889;BME280;10604;51.976;7.594;2022-12-07T08:28:41;100792.16;;;15.65;41.67
20889;BME280;10604;51.976;7.594;2022-12-07T08:31:13;100794.88;;;15.63;41.84
20889;BME280;10604;51.976;7.594;2022-12-07T08:33:39;100784.91;;;15.33;42.33
20889;BME280;10604;51.976;7.594;2022-12-07T08:36:07;100787.38;;;15.00;43.32
20889;BME280;10604;51.976;7.594;2022-12-07T08:38:34;100785.94;;;15.11;42.97
20889;BME280;10604;51.976;7.594;2022-12-07T08:41:00;100790.34;;;15.29;43.09
20889;BME280;10604;51.976;7.594;2022-12-07T08:43:25;100789.34;;;15.85;41.66
20889;BME280;10604;51.976;7.594;2022-12-07T08:48:29;100783.47;;;15.25;42.90
20889;BME280;10604;51.976;7.594;2022-12-07T08:50:55;100779.25;;;15.57;42.69
20889;BME280;10604;51.976;7.594;2022-12-07T08:53:21;100784.56;;;16.09;41.44
20889;BME280;10604;51.976;7.594;2022-12-07T08:55:47;100784.44;;;16.45;41.22
20889;BME280;10604;51.976;7.594;2022-12-07T08:58:13;100777.75;;;16.54;41.28
20889;BME280;10604;51.976;7.594;2022-12-07T09:00:39;100786.56;;;16.05;41.88
20889;BME280;10604;51.976;7.594;2022-12-07T09:03:04;100785.59;;;15.89;42.83
20889;BME280;10604;51.976;7.594;2022-12-07T09:05:29;100780.97;;;16.43;41.50
20889;BME280;10604;51.976;7.594;2022-12-07T09:07:57;100781.88;;;16.59;41.45
20889;BME280;10604;51.976;7.594;2022-12-07T09:10:25;100783.50;;;16.46;41.30
20889;BME280;10604;51.976;7.594;2022-12-07T09:12:51;100786.56;;;16.05;42.35
20889;BME280;10604;51.976;7.594;2022-12-07T09:15:17;100784.19;;;15.82;42.23
20889;BME280;10604;51.976;7.594;2022-12-07T09:17:42;100785.28;;;15.95;42.54
20889;BME280;10604;51.976;7.594;2022-12-07T09:20:08;100786.69;;;16.20;41.98
20889;BME280;10604;51.976;7.594;2022-12-07T09:22:33;100787.09;;;16.12;42.53
20889;BME280;10604;51.976;7.594;2022-12-07T09:24:59;100786.31;;;15.93;43.41
20889;BME280;10604;51.976;7.594;2022-12-07T09:27:26;100781.50;;;16.50;42.07
20889;BME280;10604;51.976;7.594;2022-12-07T09:29:52;100775.25;;;16.83;41.19
20889;BME280;10604;51.976;7.594;2022-12-07T09:32:17;100781.38;;;17.17;40.78
20889;BME280;10604;51.976;7.594;2022-12-07T09:34:43;100783.69;;;16.26;42.53
20889;BME280;10604;51.976;7.594;2022-12-07T09:37:08;100792.81;;;15.87;42.74
20889;BME280;10604;51.976;7.594;2022-12-07T09:39:34;100782.44;;;16.16;42.67
20889;BME280;10604;51.976;7.594;2022-12-07T09:42:03;100784.31;;;16.14;42.39
20889;BME280;10604;51.976;7.594;2022-12-07T09:44:29;100775.91;;;16.71;41.99
20889;BME280;10604;51.976;7.594;2022-12-07T09:46:55;100779.59;;;16.36;42.30
20889;BME280;10604;51.976;7.594;2022-12-07T09:49:23;100778.56;;;16.05;42.91
20889;BME280;10604;51.976;7.594;2022-12-07T09:52:01;100769.78;;;15.86;42.97
20889;BME280;10604;51.976;7.594;2022-12-07T09:54:28;100777.00;;;15.67;43.03
20889;BME280;10604;51.976;7.594;2022-12-07T09:56:54;100773.31;;;16.70;42.09
20889;BME280;10604;51.976;7.594;2022-12-07T09:59:19;100788.16;;;17.07;40.52
20889;BME280;10604;51.976;7.594;2022-12-07T10:01:49;100782.06;;;17.05;40.67
20889;BME280;10604;51.976;7.594;2022-12-07T10:04:18;100776.00;;;16.37;41.90
20889;BME280;10604;51.976;7.594;2022-12-07T10:06:44;100776.19;;;16.34;42.02
20889;BME280;10604;51.976;7.594;2022-12-07T10:09:19;100773.69;;;16.79;41.11
20889;BME280;10604;51.976;7.594;2022-12-07T10:12:04;100769.75;;;16.87;41.31
20889;BME280;10604;51.976;7.594;2022-12-07T10:14:32;100769.06;;;16.83;41.79
20889;BME280;10604;51.976;7.594;2022-12-07T10:16:58;100765.28;;;17.03;41.08
20889;BME280;10604;51.976;7.594;2022-12-07T10:19:25;100766.97;;;17.35;40.48
20889;BME280;10604;51.976;7.594;2022-12-07T10:22:16;100762.13;;;18.31;39.26
20889;BME280;10604;51.976;7.594;2022-12-07T10:24:44;100765.19;;;18.39;38.77
20889;BME280;10604;51.976;7.594;2022-12-07T10:27:19;100764.59;;;17.15;40.59
20889;BME280;10604;51.976;7.594;2022-12-07T10:29:51;100767.59;;;17.40;40.39
20889;BME280;10604;51.976;7.594;2022-12-07T10:34:42;100762.00;;;17.29;40.24
20889;BME280;10604;51.976;7.594;2022-12-07T10:39:50;100761.13;;;17.29;40.26
20889;BME280;10604;51.976;7.594;2022-12-07T10:42:25;100767.22;;;18.06;39.46
20889;BME280;10604;51.976;7.594;2022-12-07T10:45:16;100755.91;;;17.73;40.46
20889;BME280;10604;51.976;7.594;2022-12-07T11:06:15;100732.31;;;19.48;37.43
20889;BME280;10604;51.976;7.594;2022-12-07T11:11:36;100734.13;;;18.94;38.27
20889;BME280;10604;51.976;7.594;2022-12-07T11:14:05;100722.25;;;18.98;38.24
20889;BME280;10604;51.976;7.594;2022-12-07T11:20:12;100712.63;;;18.95;37.95
20889;BME280;10604;51.976;7.594;2022-12-07T11:31:41;100704.31;;;18.59;38.15
20889;BME280;10604;51.976;7.594;2022-12-07T11:37:01;100710.81;;;19.23;37.98
20889;BME280;10604;51.976;7.594;2022-12-07T11:39:35;100707.84;;;18.59;38.43
20889;BME280;10604;51.976;7.594;2022-12-07T11:42:15;100699.72;;;18.47;38.84
20889;BME280;10604;51.976;7.594;2022-12-07T11:44:52;100700.56;;;18.75;38.11
20889;BME280;10604;51.976;7.594;2022-12-07T11:47:28;100694.00;;;18.53;38.25
20889;BME280;10604;51.976;7.594;2022-12-07T11:50:26;100691.66;;;18.89;38.10
20889;BME280;10604;51.976;7.594;2022-12-07T11:52:57;100693.41;;;18.62;38.76
20889;BME280;10604;51.976;7.594;2022-12-07T11:55:40;100684.03;;;17.70;39.25
20889;BME280;10604;51.976;7.594;2022-12-07T11:58:27;100689.38;;;18.69;38.80
20889;BME280;10604;51.976;7.594;2022-12-07T12:04:05;100676.97;;;18.82;38.26
20889;BME280;10604;51.976;7.594;2022-12-07T12:06:32;100676.91;;;17.70;39.87
20889;BME280;10604;51.976;7.594;2022-12-07T12:09:15;100680.25;;;18.59;38.42
20889;BME280;10604;51.976;7.594;2022-12-07T12:15:02;100668.44;;;18.06;39.53
20889;BME280;10604;51.976;7.594;2022-12-07T12:22:48;100673.75;;;18.49;38.82
20889;BME280;10604;51.976;7.594;2022-12-07T12:25:26;100662.97;;;18.91;37.79
20889;BME280;10604;51.976;7.594;2022-12-07T12:27:55;100660.53;;;18.61;38.57
20889;BME280;10604;51.976;7.594;2022-12-07T12:30:35;100663.19;;;18.88;37.82
20889;BME280;10604;51.976;7.594;2022-12-07T12:35:40;100669.38;;;18.19;38.73
20889;BME280;10604;51.976;7.594;2022-12-07T12:38:32;100665.09;;;18.45;38.63
20889;BME280;10604;51.976;7.594;2022-12-07T12:41:01;100657.03;;;17.90;39.06
20889;BME280;10604;51.976;7.594;2022-12-07T12:43:48;100658.63;;;18.76;37.90
20889;BME280;10604;51.976;7.594;2022-12-07T12:49:13;100649.56;;;18.09;39.39
20889;BME280;10604;51.976;7.594;2022-12-07T12:51:44;100641.56;;;17.81;38.83
20889;BME280;10604;51.976;7.594;2022-12-07T12:54:19;100646.22;;;17.33;40.01
20889;BME280;10604;51.976;7.594;2022-12-07T12:59:33;100644.75;;;17.57;39.52
20889;BME280;10604;51.976;7.594;2022-12-07T13:04:59;100647.47;;;17.72;40.08
20889;BME280;10604;51.976;7.594;2022-12-07T13:26:35;100622.88;;;18.23;38.70
20889;BME280;10604;51.976;7.594;2022-12-07T13:31:55;100626.78;;;18.32;38.59
20889;BME280;10604;51.976;7.594;2022-12-07T13:34:35;100622.28;;;18.32;38.85
20889;BME280;10604;51.976;7.594;2022-12-07T13:39:53;100613.63;;;18.15;39.12
20889;BME280;10604;51.976;7.594;2022-12-07T13:44:52;100617.81;;;18.74;37.50
20889;BME280;10604;51.976;7.594;2022-12-07T13:47:39;100600.19;;;19.11;38.14
20889;BME280;10604;51.976;7.594;2022-12-07T13:50:36;100605.16;;;19.55;37.35
20889;BME280;10604;51.976;7.594;2022-12-07T13:53:01;100603.06;;;19.60;37.26
20889;BME280;10604;51.976;7.594;2022-12-07T13:55:28;100610.91;;;18.57;38.76
20889;BME280;10604;51.976;7.594;2022-12-07T13:57:55;100613.56;;;18.84;37.94
20889;BME280;10604;51.976;7.594;2022-12-07T14:00:28;100602.22;;;19.33;37.42
20889;BME280;10604;51.976;7.594;2022-12-07T14:07:56;100600.00;;;17.91;38.99
20889;BME280;10604;51.976;7.594;2022-12-07T14:12:55;100592.66;;;18.50;38.23
20889;BME280;10604;51.976;7.594;2022-12-07T14:15:22;100602.97;;;18.56;38.52
20889;BME280;10604;51.976;7.594;2022-12-07T14:17:53;100588.16;;;18.23;38.61
20889;BME280;10604;51.976;7.594;2022-12-07T14:22:55;100592.66;;;18.50;38.36
20889;BME280;10604;51.976;7.594;2022-12-07T14:25:25;100591.28;;;18.71;38.13
20889;BME280;10604;51.976;7.594;2022-12-07T14:30:22;100588.53;;;18.31;38.85
20889;BME280;10604;51.976;7.594;2022-12-07T14:32:52;100591.28;;;18.71;37.79
20889;BME280;10604;51.976;7.594;2022-12-07T14:35:18;100583.44;;;18.82;37.92
20889;BME280;10604;51.976;7.594;2022-12-07T14:37:47;100580.72;;;18.55;38.18
20889;BME280;10604;51.976;7.594;2022-12-07T14:40:30;100581.41;;;18.59;38.21
20889;BME280;10604;51.976;7.594;2022-12-07T14:43:10;100590.84;;;18.50;37.98
20889;BME280;10604;51.976;7.594;2022-12-07T14:45:36;100584.44;;;17.97;38.35
20889;BME280;10604;51.976;7.594;2022-12-07T14:48:02;100579.00;;;17.56;39.80
20889;BME280;10604;51.976;7.594;2022-12-07T14:50:28;100589.69;;;18.13;39.17
20889;BME280;10604;51.976;7.594;2022-12-07T14:52:57;100576.63;;;18.50;38.10
20889;BME280;10604;51.976;7.594;2022-12-07T14:55:26;100580.94;;;17.54;38.94
20889;BME280;10604;51.976;7.594;2022-12-07T14:57:52;100576.38;;;17.27;39.31
20889;BME280;10604;51.976;7.594;2022-12-07T15:00:19;100576.69;;;16.31;39.38
20889;BME280;10604;51.976;7.594;2022-12-07T15:02:45;100575.81;;;17.80;38.22
20889;BME280;10604;51.976;7.594;2022-12-07T15:05:11;100576.56;;;17.68;37.70
20889;BME280;10604;51.976;7.594;2022-12-07T15:07:37;100578.47;;;17.94;37.34
20889;BME280;10604;51.976;7.594;2022-12-07T15:10:03;100582.66;;;17.84;37.06
20889;BME280;10604;51.976;7.594;2022-12-07T15:12:28;100578.94;;;18.42;36.87
20889;BME280;10604;51.976;7.594;2022-12-07T15:14:53;100576.81;;;18.06;36.69
20889;BME280;10604;51.976;7.594;2022-12-07T15:17:19;100570.03;;;18.14;36.61
20889;BME280;10604;51.976;7.594;2022-12-07T15:19:44;100570.03;;;18.14;36.70